Time;durP1;ratioP1;P1;durP2;ratioP2;P2;SDS_P1;SDS_P2;PMS_P1;PMS_P2;Temp;Humidity;BMP_temperature;BMP_pressure;BME280_temperature;BME280_humidity;BME280_pressure;Samples;Min_cycle;Max_cycle;Signal;HPM_P1;HPM_P2
2023/11/19 00:07:41;;;;;;;;;;;;;;;;;;;;;
2023/11/19 00:19:47;;;;;;;84.40;34.30;;;;;;;0.80;100.00;100999.99;223048;1267;140384;-86
2023/11/19 00:25:49;;;;;;;202.10;62.90;;;;;;;0.76;100.00;100993.45;223670;1268;139006;-86
2023/11/19 00:31:50;;;;;;;93.40;39.40;;;;;;;0.73;100.00;100978.18;223135;1268;140247;-86
2023/11/19 00:37:51;;;;;;;86.70;34.90;;;;;;;0.64;100.00;100972.05;223677;1267;139596;-85
2023/11/19 00:43:29;;;;;;;78.30;35.90;;;;;;;0.57;100.00;100963.08;223691;1267;139549;-85
2023/11/19 00:49:28;;;;;;;73.00;35.10;;;;;;;0.51;100.00;100946.94;223107;1266;140186;-86
2023/11/19 00:55:13;;;;;;;80.00;36.70;;;;;;;0.46;100.00;100935.28;223708;1267;139457;-85
2023/11/19 01:01:11;;;;;;;;;;;;;;;;;;;;;
2023/11/19 01:07:04;;;;;;;;;;;;;;;;;;;;;
2023/11/19 01:12:58;;;;;;;;;;;;;;;;;;;;;
2023/11/19 01:18:51;;;;;;;89.40;37.90;;;;;;;0.34;100.00;100878.98;223160;1267;140583;-85
2023/11/19 01:24:42;;;;;;;;;;;;;;;;;;;;;
2023/11/19 01:30:34;;;;;;;72.70;32.40;;;;;;;0.33;100.00;100878.17;223329;1266;140693;-85
2023/11/19 01:36:36;;;;;;;97.10;39.00;;;;;;;0.34;100.00;100862.52;223731;1266;105312;-85
2023/11/19 01:42:38;;;;;;;84.20;36.60;;;;;;;0.36;100.00;100860.47;223176;1266;140221;-85
2023/11/19 01:48:40;;;;;;;77.50;34.00;;;;;;;0.37;100.00;100828.83;223291;1267;140678;-84
2023/11/19 01:54:22;;;;;;;68.30;30.00;;;;;;;0.40;100.00;100800.66;223877;1266;104657;-85
2023/11/19 02:00:24;;;;;;;118.80;41.90;;;;;;;0.43;100.00;100797.21;223367;1267;211489;-84
2023/11/19 02:06:18;;;;;;;95.60;35.60;;;;;;;0.42;100.00;100782.29;223724;1267;107518;-85
2023/11/19 02:12:23;;;;;;;74.10;30.80;;;;;;;0.42;100.00;100764.99;223163;1267;139815;-84
2023/11/19 02:18:26;;;;;;;;;;;;;;;;;;;;;
2023/11/19 02:24:28;;;;;;;73.00;30.80;;;;;;;0.45;100.00;100748.91;223796;1268;108235;-83
2023/11/19 02:30:29;;;;;;;70.10;29.50;;;;;;;0.46;100.00;100739.36;223121;1266;140569;-84
2023/11/19 02:36:30;;;;;;;66.40;29.00;;;;;;;0.52;100.00;100733.23;223757;1267;96319;-83
2023/11/19 02:42:31;;;;;;;56.30;27.70;;;;;;;0.57;100.00;100722.34;223375;1266;139918;-85
2023/11/19 02:48:31;;;;;;;63.90;28.60;;;;;;;0.57;100.00;100714.86;223084;1267;140777;-87
2023/11/19 02:54:34;;;;;;;67.90;31.70;;;;;;;0.59;100.00;100698.68;223668;1267;138895;-84
2023/11/19 03:00:37;;;;;;;64.20;28.50;;;;;;;0.62;100.00;100681.08;223096;1269;140263;-86
2023/11/19 03:06:35;;;;;;;70.50;29.80;;;;;;;0.63;100.00;100671.00;223764;1269;95914;-84
2023/11/19 03:12:36;;;;;;;74.90;32.80;;;;;;;0.65;100.00;100649.11;223301;1270;139885;-84
2023/11/19 03:18:36;;;;;;;70.50;31.70;;;;;;;0.68;100.00;100619.66;223184;1269;140684;-86
2023/11/19 03:24:37;;;;;;;66.50;31.60;;;;;;;0.70;100.00;100620.63;223645;1269;138772;-84
2023/11/19 03:30:41;;;;;;;66.00;29.40;;;;;;;0.74;100.00;100618.98;223112;1267;140399;-84
2023/11/19 03:42:34;;;;;;;72.40;31.90;;;;;;;0.77;100.00;100566.29;223175;1267;139929;-84
2023/11/19 03:48:39;;;;;;;69.40;31.80;;;;;;;0.79;100.00;100551.89;223178;1267;140598;-84
2023/11/19 04:06:30;;;;;;;65.70;27.10;;;;;;;0.79;100.00;100517.16;223686;1269;139333;-85
2023/11/19 04:12:31;;;;;;;62.00;29.10;;;;;;;0.79;100.00;100515.75;223193;1268;140040;-85
2023/11/19 04:18:23;;;;;;;64.50;29.20;;;;;;;0.82;100.00;100503.60;223148;1267;140342;-84
2023/11/19 04:24:24;;;;;;;60.80;28.30;;;;;;;0.85;100.00;100497.23;223800;1267;138947;-85
2023/11/19 04:30:25;;;;;;;64.40;30.30;;;;;;;0.84;100.00;100479.61;223065;1269;140016;-84
2023/11/19 04:36:19;;;;;;;;;;;;;;;;;;;;;
2023/11/19 04:42:27;;;;;;;69.40;29.20;;;;;;;0.87;100.00;100478.48;223135;1267;139955;-83
2023/11/19 04:48:14;;;;;;;53.00;23.10;;;;;;;0.87;100.00;100478.85;223013;1267;140474;-85
2023/11/19 04:54:15;;;;;;;64.30;28.00;;;;;;;0.86;100.00;100468.75;223610;1267;139302;-85
2023/11/19 05:00:16;;;;;;;66.20;29.90;;;;;;;0.85;100.00;100465.66;223141;1267;140776;-84
2023/11/19 05:06:06;;;;;;;;;;;;;;;;;;;;;
2023/11/19 05:12:11;;;;;;;71.60;31.80;;;;;;;0.91;100.00;100442.83;223180;1266;140092;-85
2023/11/19 05:18:09;;;;;;;72.00;31.20;;;;;;;0.89;100.00;100414.08;223268;1269;139987;-83
2023/11/19 05:24:11;;;;;;;67.40;29.40;;;;;;;0.87;100.00;100408.64;223708;1267;139472;-84
2023/11/19 05:30:12;;;;;;;68.30;30.20;;;;;;;0.89;100.00;100407.06;223148;1266;140101;-84
2023/11/19 05:36:05;;;;;;;;;;;;;;;;;;;;;
2023/11/19 05:42:07;;;;;;;63.20;28.30;;;;;;;0.92;100.00;100363.70;223048;1271;140501;-84
2023/11/19 05:48:02;;;;;;;;;;;;;;;;;;;;;
2023/11/19 05:54:03;;;;;;;60.30;24.20;;;;;;;0.93;100.00;100334.31;223651;1269;138845;-84
2023/11/19 06:00:29;;;;;;;55.20;26.10;;;;;;;0.93;100.00;100314.61;223079;1266;140625;-85
2023/11/19 06:05:55;;;;;;;;;;;;;;;;;;;;;
2023/11/19 06:11:55;;;;;;;55.70;24.60;;;;;;;0.94;100.00;100298.22;223175;1269;139933;-85
2023/11/19 06:23:47;;;;;;;49.00;23.80;;;;;;;0.96;100.00;100282.52;223567;1267;391938;-85
2023/11/19 06:29:42;;;;;;;46.80;22.90;;;;;;;0.97;100.00;100267.91;223040;1267;140360;-84
2023/11/19 06:35:35;;;;;;;54.40;25.80;;;;;;;0.99;100.00;100244.89;223669;1270;139276;-84
2023/11/19 06:41:33;;;;;;;51.70;24.00;;;;;;;1.02;100.00;100243.80;223149;1266;140459;-84
2023/11/19 06:47:34;;;;;;;53.60;26.00;;;;;;;1.04;100.00;100228.02;223643;1269;138930;-84
2023/11/19 06:53:05;;;;;;;56.80;26.30;;;;;;;1.04;100.00;100212.20;223597;1267;243212;-83
2023/11/19 06:58:56;;;;;;;;;;;;;;;;;;;;;
2023/11/19 07:04:50;;;;;;;58.00;25.40;;;;;;;1.06;100.00;100202.86;223575;1267;139388;-84
2023/11/19 07:10:50;;;;;;;60.00;26.20;;;;;;;1.05;100.00;100190.75;223080;1268;140531;-84
2023/11/19 07:16:51;;;;;;;56.90;26.00;;;;;;;1.04;100.00;100161.27;223729;1270;138977;-83
2023/11/19 07:22:34;;;;;;;54.50;25.00;;;;;;;1.08;100.00;100136.42;223111;1267;140425;-83
2023/11/19 07:28:36;;;;;;;51.20;24.80;;;;;;;1.08;100.00;100133.30;223130;1268;140248;-83
2023/11/19 07:34:37;;;;;;;46.40;20.90;;;;;;;1.12;100.00;100133.36;223725;1270;139105;-85
2023/11/19 07:40:37;;;;;;;55.20;25.70;;;;;;;1.14;100.00;100130.51;223047;1267;140379;-84
2023/11/19 07:46:29;;;;;;;48.70;22.70;;;;;;;1.18;100.00;100116.13;223630;1267;139787;-84
2023/11/19 07:52:11;;;;;;;50.70;22.90;;;;;;;1.21;100.00;100113.85;223169;1270;140491;-84
2023/11/19 07:58:03;;;;;;;50.00;22.60;;;;;;;1.25;100.00;100101.57;223184;1267;140303;-84
2023/11/19 08:04:01;;;;;;;;;;;;;;;;;;;;;
2023/11/19 08:10:05;;;;;;;45.60;21.60;;;;;;;1.36;100.00;100079.11;223204;1267;140424;-84
2023/11/19 08:15:43;;;;;;;;;;;;;;;;;;;;;
2023/11/19 08:21:38;;;;;;;;;;;;;;;;;;;;;
2023/11/19 08:27:40;;;;;;;47.20;21.50;;;;;;;1.52;100.00;100038.56;223687;1267;139656;-82
2023/11/19 08:33:41;;;;;;;44.30;18.70;;;;;;;1.55;100.00;100028.77;223652;1267;220547;-83
2023/11/19 08:39:32;;;;;;;;;;;;;;;;;;;;;
2023/11/19 08:45:51;;;;;;;41.20;19.90;;;;;;;1.66;100.00;99998.30;223715;1267;138974;-83
2023/11/19 08:51:33;;;;;;;;;;;;;;;;;;;;;
2023/11/19 08:57:27;;;;;;;;;;;;;;;;;;;;;
2023/11/19 09:03:20;;;;;;;;;;;;;;;;;;;;;
2023/11/19 09:09:22;;;;;;;45.50;19.30;;;;;;;1.69;100.00;99978.42;223065;1266;140108;-83
2023/11/19 09:14:57;;;;;;;43.70;21.00;;;;;;;1.64;100.00;99968.69;223679;1267;139242;-86
2023/11/19 09:20:37;;;;;;;;;;;;;;;;;;;;;
2023/11/19 09:26:27;;;;;;;40.10;17.90;;;;;;;1.51;100.00;99955.60;223663;1267;139205;-86
2023/11/19 09:32:27;;;;;;;40.80;20.50;;;;;;;1.37;100.00;99946.54;223341;1266;139772;-86
2023/11/19 09:38:27;;;;;;;44.10;19.70;;;;;;;1.26;100.00;99931.77;219153;1267;5409136;-84
2023/11/19 09:44:03;;;;;;;;;;;;;;;;;;;;;
2023/11/19 09:49:57;;;;;;;40.10;18.80;;;;;;;1.14;100.00;99924.80;223117;1267;140293;-83
2023/11/19 09:55:59;;;;;;;35.50;17.30;;;;;;;1.11;100.00;99919.88;223689;1266;138965;-84
2023/11/19 10:02:00;;;;;;;36.00;15.80;;;;;;;1.08;100.00;99912.98;223235;1267;139891;-84
2023/11/19 10:07:55;;;;;;;31.30;16.40;;;;;;;1.05;100.00;99901.27;223652;1266;139384;-84
2023/11/19 10:13:32;;;;;;;37.40;17.90;;;;;;;1.04;100.00;99889.23;223636;1266;139944;-82
2023/11/19 10:19:33;;;;;;;32.20;16.20;;;;;;;1.03;100.00;99884.60;223153;1266;140145;-82
2023/11/19 10:25:20;;;;;;;37.00;16.00;;;;;;;1.05;100.00;99880.84;223780;1266;105318;-82
2023/11/19 10:31:46;;;;;;;38.40;17.30;;;;;;;1.03;100.00;99861.30;223169;1267;140129;-82
2023/11/19 10:37:28;;;;;;;;;;;;;;;;;;;;;
2023/11/19 10:43:24;;;;;;;;;;;;;;;;;;;;;
2023/11/19 10:49:18;;;;;;;27.10;14.10;;;;;;;0.95;100.00;99827.89;223235;1266;140226;-81
2023/11/19 10:55:20;;;;;;;23.80;11.00;;;;;;;0.91;100.00;99790.05;223678;1267;104881;-81
2023/11/19 11:01:07;;;;;;;;;;;;;;;;;;;;;
2023/11/19 11:07:08;;;;;;;;;;;;;;;;;;;;;
2023/11/19 11:12:58;;;;;;;;;;;;;;;;;;;;;
2023/11/19 11:18:50;;;;;;;26.10;13.00;;;;;;;1.02;100.00;99765.94;223247;1266;139907;-85
2023/11/19 11:24:57;;;;;;;29.80;13.40;;;;;;;1.06;100.00;99746.79;223851;1266;138653;-83
2023/11/19 11:31:02;;;;;;;28.80;13.30;;;;;;;1.05;100.00;99720.44;223195;1267;140228;-84
2023/11/19 11:37:06;;;;;;;28.30;12.80;;;;;;;1.08;100.00;99724.19;223652;1267;138860;-84
2023/11/19 11:43:11;;;;;;;;;;;;;;;;;;;;;
2023/11/19 11:49:13;;;;;;;31.10;14.40;;;;;;;1.10;100.00;99708.73;223290;1266;140546;-83
2023/11/19 11:55:14;;;;;;;;;;;;;;;;;;;;;
2023/11/19 12:01:20;;;;;;;34.80;17.30;;;;;;;1.14;100.00;99692.05;223131;1267;140162;-83
2023/11/19 12:07:20;;;;;;;;;;;;;;;;;;;;;
2023/11/19 12:13:25;;;;;;;37.50;19.00;;;;;;;1.17;100.00;99659.20;223365;1266;282130;-84
2023/11/19 12:19:29;;;;;;;44.10;19.80;;;;;;;1.20;100.00;99649.77;223277;1267;140001;-83
2023/11/19 12:25:24;;;;;;;40.40;20.10;;;;;;;1.21;100.00;99654.14;223755;1266;107676;-82
2023/11/19 12:31:25;;;;;;;45.50;20.50;;;;;;;1.23;100.00;99645.69;223189;1266;140297;-83
2023/11/19 12:37:25;;;;;;;45.10;19.40;;;;;;;1.23;100.00;99636.09;223609;1266;138955;-84
2023/11/19 12:43:30;;;;;;;;;;;;;;;;;;;;;
2023/11/19 12:49:38;;;;;;;38.50;18.50;;;;;;;1.30;100.00;99637.80;223290;1266;140664;-83
2023/11/19 12:55:39;;;;;;;40.40;18.90;;;;;;;1.32;100.00;99615.95;223908;1266;95989;-85
2023/11/19 13:01:45;;;;;;;40.20;19.90;;;;;;;1.37;100.00;99615.67;223139;1266;140174;-85
2023/11/19 13:07:20;;;;;;;40.50;18.90;;;;;;;1.42;100.00;99597.65;223716;1267;95978;-85
2023/11/19 13:12:43;;;;;;;38.90;18.40;;;;;;;1.44;100.00;99589.11;223386;1267;142683;-87
2023/11/19 13:18:14;;;;;;;37.80;19.20;;;;;;;1.43;100.00;99578.06;222912;1267;140080;-89
2023/11/19 13:23:41;;;;;;;37.00;17.40;;;;;;;1.44;100.00;99576.90;223596;1266;138839;-87
2023/11/19 13:29:25;;;;;;;41.00;18.50;;;;;;;1.48;100.00;99562.73;223044;1267;140068;-87
2023/11/19 13:34:54;;;;;;;38.10;19.00;;;;;;;1.49;100.00;99557.68;223610;1267;138849;-86
2023/11/19 13:46:39;;;;;;;36.70;19.90;;;;;;;1.49;100.00;99538.33;223851;1266;139009;-87
2023/11/19 13:52:19;;;;;;;36.30;18.40;;;;;;;1.51;100.00;99536.98;223210;1267;139872;-86
2023/11/19 13:58:02;;;;;;;35.60;18.30;;;;;;;1.55;100.00;99537.34;223143;1267;140375;-86
2023/11/19 14:03:35;;;;;;;42.20;19.10;;;;;;;1.57;100.00;99530.77;223764;1267;139192;-87
2023/11/19 14:09:28;;;;;;;44.60;21.80;;;;;;;1.60;100.00;99526.89;223160;1267;140194;-86
2023/11/19 14:15:17;;;;;;;;;;;;;;;;;;;;;
2023/11/19 14:20:59;;;;;;;;;;;;;;;;;;;;;
2023/11/19 14:26:13;;;;;;;;;;;;;;;;;;;;;
2023/11/19 14:32:15;;;;;;;39.10;20.10;;;;;;;1.67;100.00;99500.63;223309;1267;140191;-86
2023/11/19 14:37:58;;;;;;;;;;;;;;;;;;;;;
2023/11/19 14:43:15;;;;;;;41.50;20.80;;;;;;;1.68;100.00;99491.20;223865;1267;95949;-87
2023/11/19 14:48:32;;;;;;;;;;;;;;;;;;;;;
2023/11/19 14:54:38;;;;;;;39.30;18.70;;;;;;;1.75;100.00;99489.16;223725;1267;139287;-88
2023/11/19 15:00:38;;;;;;;46.00;21.20;;;;;;;1.78;100.00;99490.11;223065;1267;140181;-87
2023/11/19 15:06:30;;;;;;;;;;;;;;;;;;;;;
2023/11/19 15:12:24;;;;;;;;;;;;;;;;;;;;;
2023/11/19 15:18:26;;;;;;;45.80;24.20;;;;;;;1.88;100.00;99482.65;223024;1267;140203;-85
2023/11/19 15:24:17;;;;;;;51.00;25.50;;;;;;;1.88;100.00;99475.46;223638;1267;139295;-86
2023/11/19 15:30:18;;;;;;;53.30;26.40;;;;;;;1.90;100.00;99474.28;223106;1266;140525;-85
2023/11/19 15:36:12;;;;;;;;;;;;;;;;;;;;;
2023/11/19 15:42:06;;;;;;;;;;;;;;;;;;;;;
2023/11/19 15:48:01;;;;;;;74.20;33.20;;;;;;;1.94;100.00;99464.72;223071;1267;140062;-84
2023/11/19 15:54:02;;;;;;;75.30;33.50;;;;;;;1.98;100.00;99463.71;223670;1267;139094;-85
2023/11/19 15:59:53;;;;;;;75.10;30.60;;;;;;;2.01;100.00;99463.58;223054;1267;140250;-84
2023/11/19 16:05:54;;;;;;;105.90;42.70;;;;;;;2.10;100.00;99465.64;223581;1267;139078;-83
2023/11/19 16:11:43;;;;;;;;;;;;;;;;;;;;;
2023/11/19 16:17:24;;;;;;;109.00;47.70;;;;;;;2.28;100.00;99458.79;223452;1267;140328;-85
2023/11/19 16:23:04;;;;;;;;;;;;;;;;;;;;;
2023/11/19 16:28:58;;;;;;;;;;;;;;;;;;;;;
2023/11/19 16:34:42;;;;;;;;;;;;;;;;;;;;;
2023/11/19 16:40:38;;;;;;;140.80;60.80;;;;;;;2.44;100.00;99454.81;223046;1267;140236;-85
2023/11/19 16:46:08;;;;;;;;;;;;;;;;;;;;;
2023/11/19 16:51:55;;;;;;;161.70;65.00;;;;;;;2.49;100.00;99459.21;223114;1266;140551;-85
2023/11/19 16:57:47;;;;;;;210.40;84.60;;;;;;;2.51;100.00;99455.86;223470;1268;140100;-85
2023/11/19 17:03:37;;;;;;;;;;;;;;;;;;;;;
2023/11/19 17:09:23;;;;;;;;;;;;;;;;;;;;;
2023/11/19 17:15:25;;;;;;;122.20;43.30;;;;;;;2.71;100.00;99452.92;223655;1267;139008;-86
2023/11/19 17:21:15;;;;;;;;;;;;;;;;;;;;;
2023/11/19 17:27:00;;;;;;;101.20;42.80;;;;;;;2.75;100.00;99458.45;223560;1267;140363;-86
2023/11/19 17:32:41;;;;;;;99.10;39.60;;;;;;;2.83;100.00;99453.92;223231;1268;139861;-86
2023/11/19 17:38:37;;;;;;;108.10;39.80;;;;;;;2.95;100.00;99457.10;223266;1267;140175;-87
2023/11/19 17:44:38;;;;;;;97.60;39.80;;;;;;;3.13;100.00;99459.60;223841;1268;104726;-87
2023/11/19 17:50:39;;;;;;;71.00;32.50;;;;;;;3.25;100.00;99460.76;223190;1267;141092;-87
2023/11/19 17:56:40;;;;;;;60.20;27.70;;;;;;;3.41;100.00;99466.42;223808;1266;105994;-88
2023/11/19 18:02:37;;;;;;;52.30;25.00;;;;;;;3.65;100.00;99468.69;223222;1267;139982;-86
2023/11/19 18:09:01;;;;;;;51.90;22.00;;;;;;;3.96;100.00;99466.67;223283;1268;139912;-86
2023/11/19 18:14:43;;;;;;;42.90;19.40;;;;;;;4.30;100.00;99464.04;223709;1268;106046;-86
2023/11/19 18:20:43;;;;;;;43.70;18.40;;;;;;;4.56;100.00;99463.23;223185;1270;139912;-86
2023/11/19 18:26:46;;;;;;;47.50;19.90;;;;;;;4.73;100.00;99462.77;223800;1269;106473;-85
2023/11/19 18:32:41;;;;;;;44.20;16.80;;;;;;;4.92;100.00;99463.66;223238;1268;140209;-87
2023/11/19 18:38:41;;;;;;;35.50;13.10;;;;;;;5.09;100.00;99462.33;223144;1270;140082;-85
2023/11/19 18:44:25;;;;;;;;;;;;;;;;;;;;;
2023/11/19 18:50:20;;;;;;;38.30;11.40;;;;;;;5.51;100.00;99468.34;223227;1266;140432;-86
2023/11/19 18:56:17;;;;;;;50.60;11.70;;;;;;;5.70;100.00;99471.27;223641;1267;138648;-85
2023/11/19 19:01:51;;;;;;;46.50;13.30;;;;;;;5.90;100.00;99473.93;223078;1268;139958;-85
2023/11/19 19:07:07;;;;;;;;;;;;;;;;;;;;;
2023/11/19 19:13:08;;;;;;;39.70;11.60;;;;;;;6.07;100.00;99475.52;223133;1267;243527;-84
2023/11/19 19:18:25;;;;;;;39.50;11.40;;;;;;;6.14;100.00;99472.88;223112;1270;140140;-84
2023/11/19 19:24:15;;;;;;;;;;;;;;;;;;;;;
2023/11/19 19:30:17;;;;;;;43.80;12.90;;;;;;;6.24;100.00;99479.64;222989;1270;140387;-85
2023/11/19 19:36:03;;;;;;;;;;;;;;;;;;;;;
2023/11/19 19:42:05;;;;;;;55.50;13.60;;;;;;;6.38;100.00;99489.34;223184;1266;139738;-84
2023/11/19 19:48:06;;;;;;;50.20;13.00;;;;;;;6.45;100.00;99489.34;223527;1266;138856;-83
2023/11/19 19:54:18;;;;;;;49.00;13.30;;;;;;;6.53;100.00;99492.58;223655;1266;138885;-83
2023/11/19 20:06:04;;;;;;;46.60;10.60;;;;;;;6.65;100.00;99496.31;223614;1267;138855;-82
2023/11/19 20:12:03;;;;;;;39.60;12.50;;;;;;;6.74;100.00;99500.86;223022;1266;139920;-84
2023/11/19 20:18:30;;;;;;;34.60;9.70;;;;;;;6.82;100.00;99508.23;223705;1268;139227;-83
2023/11/19 20:24:05;;;;;;;42.30;9.90;;;;;;;6.98;100.00;99510.44;223541;1267;139432;-84
2023/11/19 20:29:55;;;;;;;48.60;10.10;;;;;;;7.16;100.00;99512.02;223142;1267;139647;-83
2023/11/19 20:35:36;;;;;;;45.50;9.90;;;;;;;7.31;100.00;99513.64;223758;1270;139085;-85
2023/11/19 20:41:32;;;;;;;;;;;;;;;;;;;;;
2023/11/19 20:47:18;;;;;;;30.90;9.10;;;;;;;7.55;100.00;99513.16;223645;1270;138612;-84
2023/11/19 20:53:18;;;;;;;;;;;;;;;;;;;;;
2023/11/19 20:59:20;;;;;;;39.20;10.20;;;;;;;7.68;100.00;99514.37;223166;1270;140152;-83
2023/11/19 21:05:14;;;;;;;40.60;10.30;;;;;;;7.73;100.00;99514.80;223686;1268;138970;-84
2023/11/19 21:11:08;;;;;;;39.90;10.40;;;;;;;7.78;100.00;99514.61;223162;1266;140133;-82
2023/11/19 21:17:09;;;;;;;49.20;10.50;;;;;;;7.85;100.00;99513.25;223693;1268;138979;-84
2023/11/19 21:29:12;;;;;;;39.90;11.20;;;;;;;7.94;100.00;99503.83;223291;1271;140038;-85
2023/11/19 21:35:38;;;;;;;44.70;10.70;;;;;;;7.94;100.00;99507.28;223619;1266;138999;-84
2023/11/19 21:41:06;;;;;;;;;;;;;;;;;;;;;
2023/11/19 21:47:09;;;;;;;35.90;9.70;;;;;;;8.00;100.00;99519.92;223590;1266;138609;-84
2023/11/19 21:53:09;;;;;;;;;;;;;;;;;;;;;
2023/11/19 22:05:09;;;;;;;31.50;9.10;;;;;;;8.07;100.00;99519.17;223598;1267;139412;-86
2023/11/19 22:11:10;;;;;;;29.90;9.40;;;;;;;8.11;100.00;99515.77;223090;1267;139897;-84
2023/11/19 22:17:04;;;;;;;38.80;9.50;;;;;;;8.14;100.00;99515.40;223687;1268;138656;-86
2023/11/19 22:22:56;;;;;;;;;;;;;;;;;;;;;
2023/11/19 22:28:52;;;;;;;33.40;8.60;;;;;;;8.20;100.00;99516.23;223071;1271;140060;-85
2023/11/19 22:34:53;;;;;;;30.60;8.70;;;;;;;8.22;100.00;99515.79;223619;1267;139130;-86
2023/11/19 22:40:54;;;;;;;43.30;9.90;;;;;;;8.24;100.00;99512.59;223054;1271;139957;-86
2023/11/19 22:46:38;;;;;;;28.90;9.50;;;;;;;8.28;100.00;99514.17;223475;1267;139397;-86
2023/11/19 22:52:32;;;;;;;29.30;8.10;;;;;;;8.29;100.00;99518.27;223172;1267;139603;-86
2023/11/19 22:58:34;;;;;;;31.30;8.60;;;;;;;8.31;100.00;99519.60;223151;1270;139910;-85
2023/11/19 23:04:17;;;;;;;25.20;7.70;;;;;;;8.34;100.00;99522.04;223610;1267;138732;-86
2023/11/19 23:22:20;;;;;;;26.90;7.50;;;;;;;8.40;100.00;99522.48;223148;1267;139683;-85
2023/11/19 23:28:20;;;;;;;39.00;8.30;;;;;;;8.41;100.00;99522.38;223093;1268;139817;-85
2023/11/19 23:34:15;;;;;;;31.00;8.10;;;;;;;8.46;100.00;99524.21;223596;1270;138907;-85
2023/11/19 23:39:48;;;;;;;;;;;;;;;;;;;;;
2023/11/19 23:45:40;;;;;;;22.80;8.30;;;;;;;8.47;100.00;99518.90;223654;1270;139297;-85
2023/11/19 23:57:28;;;;;;;27.90;7.80;;;;;;;8.48;100.00;99520.30;223647;1267;105146;-86
